Time;durP1;ratioP1;P1;durP2;ratioP2;P2;SDS_P1;SDS_P2;PMS_P1;PMS_P2;Temp;Humidity;BMP_temperature;BMP_pressure;BME280_temperature;BME280_humidity;BME280_pressure;Samples;Min_cycle;Max_cycle;Signal;HPM_P1;HPM_P2
2022/11/22 00:01:04;;;;;;;13.02;6.50;;;;;;;10.46;71.32;99078.25;5031993;28;20028;-45
2022/11/22 00:03:29;;;;;;;12.75;6.53;;;;;;;10.64;70.57;99066.69;5031726;28;20033;-42
2022/11/22 00:05:55;;;;;;;12.75;7.05;;;;;;;10.61;70.53;99065.88;5031554;28;20470;-45
2022/11/22 00:08:20;;;;;;;12.02;6.43;;;;;;;10.49;70.52;99053.91;5030380;28;20036;-43
2022/11/22 00:10:49;;;;;;;13.38;6.43;;;;;;;10.30;71.27;99053.31;5031154;28;20025;-43
2022/11/22 00:13:20;;;;;;;12.32;6.55;;;;;;;10.41;71.54;99056.63;5031701;28;20100;-45
2022/11/22 00:15:56;;;;;;;13.70;6.53;;;;;;;10.38;71.57;99061.00;5031533;28;20446;-45
2022/11/22 00:18:21;;;;;;;15.05;7.25;;;;;;;10.46;70.84;99061.75;5031498;28;20032;-46
2022/11/22 00:20:47;;;;;;;16.45;6.43;;;;;;;10.41;70.65;99061.84;5030612;28;20017;-43
2022/11/22 00:23:12;;;;;;;13.68;7.03;;;;;;;10.31;71.78;99065.44;5030963;28;20026;-43
2022/11/22 00:25:37;;;;;;;14.20;6.68;;;;;;;10.26;71.74;99059.44;5031085;28;20029;-42
2022/11/22 00:28:03;;;;;;;15.30;6.40;;;;;;;10.28;70.93;99065.50;5030787;28;20151;-43
2022/11/22 00:30:28;;;;;;;14.43;6.60;;;;;;;10.21;72.07;99061.25;5030526;28;20071;-44
2022/11/22 00:32:53;;;;;;;13.93;6.63;;;;;;;10.26;72.43;99062.03;5031084;28;20504;-43
2022/11/22 00:35:19;;;;;;;14.30;7.10;;;;;;;10.33;72.05;99058.47;5030631;28;20025;-41
2022/11/22 00:37:44;;;;;;;16.85;6.60;;;;;;;10.38;72.04;99058.38;5030641;28;20233;-43
2022/11/22 00:40:09;;;;;;;16.90;6.50;;;;;;;10.44;71.26;99066.13;5030627;28;20029;-47
2022/11/22 00:42:35;;;;;;;16.85;7.00;;;;;;;10.11;72.93;99070.91;5030233;28;20076;-40
2022/11/22 00:45:00;;;;;;;13.80;6.90;;;;;;;10.24;73.50;99076.84;5030646;28;20025;-42
2022/11/22 00:47:25;;;;;;;13.32;6.40;;;;;;;10.52;72.46;99079.91;5030854;28;20805;-43
2022/11/22 00:49:51;;;;;;;15.00;6.20;;;;;;;10.44;72.81;99073.94;5030217;28;20507;-42
2022/11/22 00:52:16;;;;;;;14.88;6.57;;;;;;;10.61;71.99;99079.78;5030220;28;20035;-42
2022/11/22 00:54:41;;;;;;;12.77;6.18;;;;;;;10.51;71.85;99070.34;5030505;28;20033;-42
2022/11/22 00:57:06;;;;;;;12.20;5.88;;;;;;;10.55;71.59;99075.50;5030782;28;20437;-46
2022/11/22 00:59:32;;;;;;;12.75;6.00;;;;;;;10.46;71.71;99077.38;5030324;28;20025;-44
2022/11/22 01:01:57;;;;;;;13.93;5.90;;;;;;;10.27;71.87;99078.53;5030069;28;20029;-46
2022/11/22 01:04:22;;;;;;;16.38;5.75;;;;;;;10.15;71.95;99079.53;5030320;28;20410;-42
2022/11/22 01:06:48;;;;;;;13.07;5.53;;;;;;;10.27;71.37;99068.97;5030349;28;20132;-44
2022/11/22 01:09:18;;;;;;;14.07;5.22;;;;;;;10.13;71.99;99070.88;5030440;28;20029;-44
2022/11/22 01:11:43;;;;;;;15.10;5.20;;;;;;;10.13;71.59;99071.72;5030285;28;20025;-42
2022/11/22 01:14:08;;;;;;;16.00;5.00;;;;;;;10.08;71.95;99064.88;5030872;28;20473;-45
2022/11/22 01:16:34;;;;;;;11.27;4.75;;;;;;;10.05;71.78;99068.38;5030632;28;20037;-42
2022/11/22 01:18:59;;;;;;;10.82;4.35;;;;;;;10.08;71.67;99062.25;5030029;28;20118;-49
2022/11/22 01:21:24;;;;;;;17.13;4.88;;;;;;;10.04;72.04;99065.78;5029667;28;20089;-44
2022/11/22 01:23:50;;;;;;;12.13;4.28;;;;;;;9.96;71.53;99068.50;5030097;28;20382;-42
2022/11/22 01:26:15;;;;;;;13.65;4.30;;;;;;;10.00;71.35;99070.16;5030218;28;20112;-43
2022/11/22 01:28:40;;;;;;;13.48;4.38;;;;;;;9.89;71.52;99068.59;5029929;28;20025;-42
2022/11/22 01:31:06;;;;;;;13.80;4.00;;;;;;;9.79;72.34;99075.66;5029949;28;20425;-42
2022/11/22 01:33:31;;;;;;;11.63;4.15;;;;;;;9.97;72.00;99079.78;5030395;28;20025;-43
2022/11/22 01:35:57;;;;;;;14.95;4.10;;;;;;;9.87;72.32;99078.16;5030445;28;20029;-43
2022/11/22 01:38:22;;;;;;;14.48;3.97;;;;;;;9.92;72.23;99079.84;5030792;28;20501;-42
2022/11/22 01:40:48;;;;;;;10.43;3.78;;;;;;;9.88;71.56;99069.50;5030103;28;20029;-43
2022/11/22 01:43:22;;;;;;;14.02;3.80;;;;;;;9.85;72.26;99072.13;5030475;28;20021;-43
2022/11/22 01:45:51;;;;;;;14.15;3.70;;;;;;;9.80;71.75;99068.72;5030429;28;20033;-46
2022/11/22 01:48:22;;;;;;;14.57;3.67;;;;;;;9.84;71.85;99073.84;5030103;28;20029;-42
2022/11/22 01:50:52;;;;;;;12.55;3.42;;;;;;;9.81;72.35;99065.22;5030436;28;20033;-43
2022/11/22 01:53:43;;;;;;;10.68;3.13;;;;;;;9.76;71.96;99062.66;5030692;28;20411;-44
2022/11/22 01:56:13;;;;;;;13.43;3.10;;;;;;;9.82;71.84;99075.59;5029032;28;20123;-45
2022/11/22 01:58:42;;;;;;;16.30;3.40;;;;;;;9.80;71.89;99084.31;5029068;28;20025;-47
2022/11/22 02:01:07;;;;;;;16.40;3.17;;;;;;;9.72;72.13;99074.00;5029822;28;20075;-42
2022/11/22 02:03:36;;;;;;;15.57;3.08;;;;;;;9.68;72.55;99082.75;5033493;28;20030;-43
2022/11/22 02:06:02;;;;;;;15.80;3.10;;;;;;;9.80;71.68;99086.94;5034284;28;20449;-43
2022/11/22 02:08:43;;;;;;;18.95;2.95;;;;;;;9.63;72.17;99087.13;5034950;28;20045;-43
2022/11/22 02:11:11;;;;;;;10.82;2.80;;;;;;;9.60;71.95;99084.56;5033435;28;20026;-43
2022/11/22 02:13:40;;;;;;;15.90;2.72;;;;;;;9.53;72.22;99088.09;5034391;28;20017;-43
2022/11/22 02:16:06;;;;;;;9.77;2.55;;;;;;;9.62;71.77;99088.00;5033225;28;20650;-44
2022/11/22 02:18:34;;;;;;;18.95;2.75;;;;;;;9.51;72.43;99093.34;5030602;28;20031;-43
2022/11/22 02:21:00;;;;;;;13.32;2.63;;;;;;;9.52;71.42;99084.63;5029821;28;20025;-45
2022/11/22 02:23:55;;;;;;;12.50;2.60;;;;;;;9.48;72.28;99085.56;5029645;28;20437;-44
2022/11/22 02:26:26;;;;;;;15.05;2.60;;;;;;;9.60;71.86;99079.34;5029533;28;20033;-46
2022/11/22 02:28:52;;;;;;;14.70;2.78;;;;;;;9.64;70.99;99081.03;5029470;28;20119;-44
2022/11/22 02:31:40;;;;;;;12.90;2.58;;;;;;;9.50;71.50;99091.59;5029837;28;20026;-44
2022/11/22 02:34:06;;;;;;;15.13;2.67;;;;;;;9.48;72.28;99097.69;5033676;28;20478;-42
2022/11/22 02:36:37;;;;;;;14.23;2.72;;;;;;;9.48;71.58;99095.97;5033159;28;20140;-42
2022/11/22 02:39:04;;;;;;;14.40;3.03;;;;;;;9.36;72.23;99096.09;5033427;28;20409;-43
2022/11/22 02:41:31;;;;;;;13.82;2.53;;;;;;;9.50;71.58;99102.00;5032819;28;20040;-46
2022/11/22 02:43:56;;;;;;;18.10;2.97;;;;;;;9.50;71.07;99102.00;5033469;28;20123;-44
2022/11/22 02:46:22;;;;;;;14.13;2.75;;;;;;;9.43;71.54;99108.16;5033358;28;20049;-42
2022/11/22 02:48:48;;;;;;;13.80;2.63;;;;;;;9.40;71.57;99105.56;5032969;28;20028;-45
2022/11/22 02:51:15;;;;;;;17.02;2.60;;;;;;;9.40;71.25;99107.31;5032710;28;20057;-42
2022/11/22 02:53:49;;;;;;;12.85;2.80;;;;;;;9.39;71.77;99105.59;5033311;28;20029;-45
2022/11/22 02:56:15;;;;;;;15.80;3.22;;;;;;;9.10;72.32;99101.53;5033396;28;20036;-42
2022/11/22 02:58:41;;;;;;;9.20;2.80;;;;;;;9.29;71.68;99107.41;5033173;28;20064;-43
2022/11/22 03:01:06;;;;;;;15.95;2.80;;;;;;;9.21;72.07;99125.69;5032414;28;20517;-45
2022/11/22 03:03:32;;;;;;;12.63;2.45;;;;;;;9.32;71.72;99115.22;5033108;28;20025;-44
2022/11/22 03:05:57;;;;;;;11.80;2.80;;;;;;;9.31;71.74;99121.28;5033384;28;20029;-45
2022/11/22 03:08:23;;;;;;;14.75;2.25;;;;;;;9.31;71.68;99123.88;5033962;28;20417;-44
2022/11/22 03:10:48;;;;;;;14.48;2.50;;;;;;;9.42;71.63;99123.75;5032302;28;20025;-47
2022/11/22 03:13:13;;;;;;;11.05;2.65;;;;;;;9.52;71.33;99121.06;5033768;28;20022;-43
2022/11/22 03:15:39;;;;;;;9.27;2.33;;;;;;;9.53;71.02;99120.19;5034517;28;20017;-42
2022/11/22 03:18:04;;;;;;;14.68;2.50;;;;;;;9.57;70.99;99121.88;5034667;28;20515;-42
2022/11/22 03:20:31;;;;;;;12.05;2.35;;;;;;;9.53;71.37;99112.38;5033409;28;20022;-43
2022/11/22 03:22:59;;;;;;;9.70;2.35;;;;;;;9.58;70.86;99117.53;5034427;28;20017;-42
2022/11/22 03:25:24;;;;;;;15.13;2.72;;;;;;;9.76;70.05;99117.31;5035181;28;20029;-43
2022/11/22 03:27:50;;;;;;;12.05;2.10;;;;;;;9.70;69.87;99126.06;5032830;28;20030;-43
2022/11/22 03:30:15;;;;;;;12.30;2.13;;;;;;;9.52;69.91;99126.25;5032595;28;20033;-43
2022/11/22 03:32:40;;;;;;;11.30;2.25;;;;;;;9.31;70.74;99131.69;5031831;28;20021;-45
2022/11/22 03:35:06;;;;;;;10.52;2.08;;;;;;;9.43;70.29;99128.97;5032078;28;20096;-42
2022/11/22 03:37:31;;;;;;;12.52;2.15;;;;;;;9.32;70.22;99134.28;5031847;28;20474;-43
2022/11/22 03:39:57;;;;;;;9.60;2.08;;;;;;;9.44;69.90;99124.63;5032986;28;20025;-42
2022/11/22 03:42:22;;;;;;;10.43;2.10;;;;;;;9.48;69.64;99128.91;5031845;28;20434;-44
2022/11/22 03:44:47;;;;;;;11.15;2.28;;;;;;;9.15;70.04;99122.31;5031822;28;20061;-45
2022/11/22 03:47:13;;;;;;;10.30;2.40;;;;;;;9.31;70.23;99131.69;5031761;28;20104;-45
2022/11/22 03:49:38;;;;;;;9.93;2.20;;;;;;;9.14;70.07;99125.78;5046951;28;20497;-43
2022/11/22 03:52:04;;;;;;;13.00;2.00;;;;;;;9.38;69.54;99128.16;5031449;28;20030;-45
2022/11/22 03:54:29;;;;;;;7.78;2.33;;;;;;;9.23;69.44;99130.88;5031929;28;20101;-47
2022/11/22 03:56:54;;;;;;;13.75;2.38;;;;;;;9.25;69.43;99142.13;5031632;28;20390;-45
2022/11/22 03:59:19;;;;;;;7.82;2.08;;;;;;;9.25;69.59;99137.81;5031591;28;20095;-42
2022/11/22 04:01:45;;;;;;;12.23;2.00;;;;;;;9.20;69.58;99143.91;5031376;28;20132;-44
2022/11/22 04:04:10;;;;;;;6.43;1.75;;;;;;;9.29;68.98;99143.81;5031754;28;20033;-42
2022/11/22 04:06:35;;;;;;;7.70;1.88;;;;;;;9.20;69.41;99155.19;5030776;28;20034;-44
2022/11/22 04:09:01;;;;;;;11.43;2.17;;;;;;;9.18;69.20;99156.06;5031383;28;20076;-44
2022/11/22 04:11:26;;;;;;;11.40;2.10;;;;;;;8.95;70.40;99162.31;5030807;28;20053;-43
2022/11/22 04:16:35;;;;;;;8.57;1.92;;;;;;;9.04;70.17;99157.91;5031817;28;20067;-42
2022/11/22 04:19:01;;;;;;;11.60;2.30;;;;;;;8.78;70.56;99158.13;5031350;28;20033;-45
2022/11/22 04:21:35;;;;;;;10.93;1.98;;;;;;;9.01;70.25;99161.41;5031128;28;20125;-45
2022/11/22 04:26:53;;;;;;;10.40;1.90;;;;;;;8.98;70.38;99161.41;5031130;28;20040;-43
2022/11/22 04:29:19;;;;;;;11.43;2.15;;;;;;;9.00;69.83;99164.88;5031168;28;20486;-42
2022/11/22 04:34:28;;;;;;;12.60;2.55;;;;;;;8.98;70.20;99177.00;5031209;28;20409;-43
2022/11/22 04:36:54;;;;;;;12.07;2.20;;;;;;;8.99;70.74;99173.53;5030867;28;20029;-44
2022/11/22 04:39:19;;;;;;;11.55;2.10;;;;;;;9.08;70.77;99173.47;5030773;28;20033;-46
2022/11/22 04:41:44;;;;;;;7.32;1.80;;;;;;;9.02;71.06;99167.47;5030698;28;20025;-45
2022/11/22 04:46:54;;;;;;;8.88;2.10;;;;;;;9.19;70.09;99171.66;5031239;28;20437;-43
2022/11/22 04:49:19;;;;;;;10.68;2.20;;;;;;;9.07;70.04;99165.69;5029131;28;20025;-44
2022/11/22 04:54:28;;;;;;;10.40;2.00;;;;;;;9.44;69.74;99179.25;5030087;28;20095;-47
2022/11/22 04:56:54;;;;;;;12.70;2.28;;;;;;;9.47;70.25;99174.00;5030684;28;20545;-44
2022/11/22 04:59:19;;;;;;;9.30;2.00;;;;;;;9.31;69.47;99174.16;5032290;28;20078;-42
2022/11/22 05:01:44;;;;;;;9.55;2.00;;;;;;;9.28;70.28;99178.50;5031870;28;20135;-43
2022/11/22 05:04:10;;;;;;;12.38;2.22;;;;;;;9.44;69.28;99181.84;5031086;28;20052;-47
2022/11/22 05:06:36;;;;;;;8.68;1.95;;;;;;;9.55;68.85;99177.41;5030353;28;20148;-45
2022/11/22 05:09:02;;;;;;;7.07;1.90;;;;;;;9.44;69.53;99181.84;5030146;28;20029;-44
2022/11/22 05:11:27;;;;;;;8.88;2.10;;;;;;;9.49;69.01;99177.47;5029929;28;20108;-44
2022/11/22 05:13:52;;;;;;;9.00;2.10;;;;;;;9.26;68.81;99182.88;5030437;28;20117;-47
2022/11/22 05:16:17;;;;;;;10.43;2.25;;;;;;;9.65;68.69;99181.63;5030611;28;20067;-45
2022/11/22 05:18:57;;;;;;;10.52;2.50;;;;;;;9.42;68.55;99191.38;5030798;28;20508;-44
2022/11/22 05:21:23;;;;;;;10.00;2.17;;;;;;;9.50;67.65;99182.66;5030501;28;20021;-45
2022/11/22 05:23:54;;;;;;;9.75;2.40;;;;;;;9.60;68.08;99180.81;5030498;28;20075;-40
2022/11/22 05:26:25;;;;;;;10.23;2.47;;;;;;;9.16;69.18;99189.00;5030309;28;20458;-43
2022/11/22 05:28:51;;;;;;;8.38;2.70;;;;;;;9.42;68.32;99192.25;5030285;28;20087;-43
2022/11/22 05:31:21;;;;;;;6.78;2.80;;;;;;;9.47;68.54;99189.59;5030334;28;20037;-44
2022/11/22 05:33:48;;;;;;;11.18;3.10;;;;;;;9.45;67.87;99176.63;5031524;28;20029;-43
2022/11/22 05:36:14;;;;;;;9.10;3.08;;;;;;;9.35;68.17;99186.25;5031315;28;20045;-43
2022/11/22 05:38:40;;;;;;;10.40;3.13;;;;;;;9.48;67.75;99187.00;5031268;28;20478;-45
2022/11/22 05:41:07;;;;;;;9.93;3.03;;;;;;;9.42;67.96;99187.06;5031476;28;20044;-44
2022/11/22 05:43:33;;;;;;;10.90;2.78;;;;;;;9.21;68.96;99185.47;5032084;28;20028;-44
2022/11/22 05:46:14;;;;;;;8.43;2.78;;;;;;;9.25;68.01;99183.75;5030677;28;20021;-44
2022/11/22 05:48:42;;;;;;;7.88;2.70;;;;;;;9.33;68.03;99187.97;5031308;28;20032;-43
2022/11/22 05:51:10;;;;;;;10.50;2.70;;;;;;;9.13;67.99;99181.25;5032645;28;20456;-45
2022/11/22 05:53:37;;;;;;;8.05;2.60;;;;;;;9.18;68.30;99180.31;5032809;28;20026;-45
2022/11/22 05:56:07;;;;;;;11.18;3.08;;;;;;;9.12;67.93;99179.50;5035543;28;20104;-41
2022/11/22 05:58:33;;;;;;;9.70;2.88;;;;;;;9.35;67.53;99182.78;5039915;28;20544;-45
2022/11/22 06:01:07;;;;;;;9.32;2.97;;;;;;;9.46;67.82;99177.47;5036768;28;20033;-42
2022/11/22 06:03:33;;;;;;;7.80;3.27;;;;;;;9.39;67.62;99179.28;5034748;28;20025;-43
2022/11/22 06:05:59;;;;;;;6.88;2.85;;;;;;;9.52;68.14;99182.63;5030709;28;20272;-43
2022/11/22 06:08:26;;;;;;;9.52;3.78;;;;;;;9.20;68.01;99182.91;5035029;28;20036;-46
2022/11/22 06:10:52;;;;;;;9.95;3.58;;;;;;;9.49;68.00;99177.47;5035048;28;20021;-42
2022/11/22 06:13:17;;;;;;;11.32;3.65;;;;;;;9.47;67.56;99184.41;5036459;28;20049;-42
2022/11/22 06:15:42;;;;;;;10.98;4.00;;;;;;;9.56;67.08;99168.72;5034761;28;20116;-43
2022/11/22 06:18:08;;;;;;;9.25;4.18;;;;;;;9.46;67.53;99167.06;5035519;28;20017;-41
2022/11/22 06:20:33;;;;;;;10.40;4.22;;;;;;;9.46;66.84;99167.06;5035539;28;20096;-44
2022/11/22 06:22:58;;;;;;;9.20;4.40;;;;;;;9.51;67.31;99173.13;5035415;28;20288;-42
2022/11/22 06:25:24;;;;;;;8.85;4.60;;;;;;;9.45;66.92;99171.44;5035421;28;20033;-47
2022/11/22 06:27:49;;;;;;;11.32;5.18;;;;;;;9.25;67.38;99169.00;5035212;28;20115;-46
2022/11/22 06:30:15;;;;;;;13.90;5.22;;;;;;;9.42;67.05;99170.59;5035703;28;20514;-44
2022/11/22 06:32:40;;;;;;;10.05;5.00;;;;;;;9.51;66.31;99171.38;5034811;28;20128;-44
2022/11/22 06:35:06;;;;;;;12.00;5.13;;;;;;;9.35;67.17;99175.84;5034504;28;20553;-45
2022/11/22 06:37:31;;;;;;;9.35;5.00;;;;;;;9.43;67.15;99173.19;5034716;28;20029;-45
2022/11/22 06:39:56;;;;;;;11.63;5.35;;;;;;;9.35;66.51;99169.78;5034996;28;20025;-46
2022/11/22 06:42:21;;;;;;;14.80;5.30;;;;;;;9.26;67.02;99169.88;5034777;28;20021;-44
2022/11/22 06:44:47;;;;;;;10.15;4.90;;;;;;;9.32;67.29;99167.22;5033232;28;20172;-42
2022/11/22 06:47:12;;;;;;;12.18;4.82;;;;;;;9.13;67.16;99163.91;5033165;28;20406;-42
2022/11/22 06:49:37;;;;;;;10.35;4.80;;;;;;;9.41;66.60;99168.84;5033245;28;20048;-42
2022/11/22 06:52:03;;;;;;;18.48;5.60;;;;;;;9.16;67.03;99169.06;5032728;28;20044;-43
2022/11/22 06:54:28;;;;;;;12.95;5.47;;;;;;;9.06;67.50;99179.56;5033163;28;20316;-41
2022/11/22 06:56:53;;;;;;;13.75;5.50;;;;;;;9.43;66.45;99183.59;5031505;28;20092;-44
2022/11/22 06:59:19;;;;;;;11.60;5.20;;;;;;;9.49;66.09;99178.31;5032730;28;20091;-43
2022/11/22 07:01:44;;;;;;;13.18;5.18;;;;;;;9.33;66.39;99174.97;5032065;28;20020;-45
2022/11/22 07:04:09;;;;;;;8.60;4.70;;;;;;;9.26;66.86;99175.94;5032530;28;20512;-42
2022/11/22 07:06:37;;;;;;;10.48;4.35;;;;;;;9.42;66.71;99181.84;5032426;28;20057;-46
2022/11/22 07:09:08;;;;;;;10.07;5.35;;;;;;;9.44;65.98;99185.31;5032587;28;20028;-45
2022/11/22 07:11:34;;;;;;;10.13;4.88;;;;;;;9.47;65.66;99187.00;5036127;28;20029;-42
2022/11/22 07:14:01;;;;;;;9.38;5.00;;;;;;;9.44;66.10;99185.31;5035999;28;20025;-44
2022/11/22 07:16:27;;;;;;;10.15;4.88;;;;;;;9.41;66.02;99195.72;5033694;28;20025;-46
2022/11/22 07:18:52;;;;;;;11.45;4.80;;;;;;;9.48;65.67;99192.19;5033684;28;20070;-41
2022/11/22 07:21:20;;;;;;;11.40;5.50;;;;;;;9.34;66.24;99186.25;5035090;28;20018;-46
2022/11/22 07:23:47;;;;;;;11.15;5.13;;;;;;;9.61;64.78;99187.75;5033547;28;20029;-42
2022/11/22 07:26:14;;;;;;;13.57;5.10;;;;;;;9.52;65.64;99185.22;5032149;28;20044;-50
2022/11/22 07:28:40;;;;;;;14.63;5.28;;;;;;;9.23;66.46;99191.53;5031974;28;20021;-42
2022/11/22 07:31:08;;;;;;;8.55;4.80;;;;;;;9.51;65.63;99186.97;5031534;28;20079;-43
2022/11/22 07:33:34;;;;;;;12.57;4.95;;;;;;;9.62;64.82;99179.06;5031933;28;20136;-44
2022/11/22 07:36:10;;;;;;;12.63;5.35;;;;;;;9.49;65.47;99178.31;5031940;28;20044;-43
2022/11/22 07:38:36;;;;;;;11.85;4.90;;;;;;;9.54;65.20;99186.94;5031884;28;20025;-44
2022/11/22 07:41:02;;;;;;;8.02;4.97;;;;;;;9.47;65.65;99185.28;5031780;28;20021;-43
2022/11/22 07:43:28;;;;;;;8.98;4.80;;;;;;;9.64;65.00;99191.16;5031994;28;20056;-46
2022/11/22 07:45:58;;;;;;;9.25;4.60;;;;;;;9.55;65.63;99188.66;5031822;28;20053;-42
2022/11/22 07:48:23;;;;;;;13.88;5.40;;;;;;;9.42;65.57;99194.84;5031573;28;20060;-43
2022/11/22 07:50:48;;;;;;;13.05;5.45;;;;;;;9.80;64.47;99194.50;5031314;28;20078;-43
2022/11/22 07:53:13;;;;;;;12.98;5.30;;;;;;;9.80;64.88;99193.63;5031560;28;20059;-44
2022/11/22 07:55:39;;;;;;;9.55;4.65;;;;;;;9.64;65.48;99201.56;5047109;28;20025;-42
2022/11/22 07:58:04;;;;;;;10.88;5.10;;;;;;;9.87;64.62;99198.75;5031912;28;20032;-44
2022/11/22 08:00:29;;;;;;;9.95;5.00;;;;;;;9.87;64.59;99200.50;5031594;28;20151;-43
2022/11/22 08:02:56;;;;;;;11.20;4.93;;;;;;;9.63;64.81;99194.69;5031795;28;20029;-45
2022/11/22 08:05:21;;;;;;;9.90;4.55;;;;;;;9.77;64.61;99194.50;5031982;28;20040;-42
2022/11/22 08:07:48;;;;;;;11.30;4.28;;;;;;;9.67;64.92;99213.72;5031828;28;20084;-43
2022/11/22 08:10:14;;;;;;;12.35;4.10;;;;;;;9.93;64.09;99218.66;5031342;28;20437;-43
2022/11/22 08:12:39;;;;;;;11.13;4.03;;;;;;;10.01;63.78;99220.28;5031668;28;20091;-44
2022/11/22 08:15:05;;;;;;;8.32;3.75;;;;;;;9.87;64.33;99210.91;5031927;28;20025;-42
2022/11/22 08:17:31;;;;;;;8.68;3.60;;;;;;;9.84;64.16;99210.94;5031591;28;20029;-43
2022/11/22 08:19:56;;;;;;;8.93;3.70;;;;;;;9.65;64.08;99221.53;5032172;28;20378;-44
2022/11/22 08:22:21;;;;;;;10.80;3.72;;;;;;;9.95;63.99;99219.50;5033259;28;20108;-45
2022/11/22 08:24:47;;;;;;;10.40;3.78;;;;;;;10.07;63.41;99221.97;5036293;28;20032;-44
2022/11/22 08:27:12;;;;;;;15.15;3.97;;;;;;;9.93;63.99;99216.94;5036002;28;20120;-45
2022/11/22 08:29:37;;;;;;;9.05;4.10;;;;;;;9.95;63.40;99214.28;5036305;28;20032;-43
2022/11/22 08:32:03;;;;;;;10.43;4.00;;;;;;;10.04;63.49;99219.41;5035957;28;20021;-43
2022/11/22 08:34:28;;;;;;;9.50;4.30;;;;;;;10.10;64.12;99215.00;5034391;28;20021;-43
2022/11/22 08:36:53;;;;;;;9.75;3.75;;;;;;;10.25;63.36;99233.94;5036135;28;20025;-42
2022/11/22 08:39:19;;;;;;;10.57;4.05;;;;;;;10.28;63.21;99228.72;5034663;28;20478;-42
2022/11/22 08:41:44;;;;;;;10.73;4.18;;;;;;;10.16;63.60;99235.78;5033255;28;20037;-42
2022/11/22 08:44:09;;;;;;;10.23;4.18;;;;;;;10.05;64.46;99237.63;5031135;28;20104;-50
2022/11/22 08:46:34;;;;;;;13.25;4.20;;;;;;;10.22;63.35;99240.06;5030819;28;20133;-45
2022/11/22 08:49:02;;;;;;;9.60;4.13;;;;;;;10.15;63.77;99241.84;5030771;28;20427;-44
2022/11/22 08:51:28;;;;;;;13.60;4.18;;;;;;;10.34;63.54;99247.75;5030531;28;20083;-42
2022/11/22 08:53:53;;;;;;;10.27;4.22;;;;;;;10.10;63.67;99229.75;5030750;28;20448;-42
2022/11/22 08:56:18;;;;;;;8.70;4.18;;;;;;;9.91;64.19;99225.63;5031135;28;20021;-42
2022/11/22 08:58:43;;;;;;;8.77;4.07;;;;;;;10.34;63.49;99250.34;5030845;28;20378;-43
2022/11/22 09:01:14;;;;;;;8.73;4.10;;;;;;;9.95;64.61;99249.00;5030018;28;20021;-43
2022/11/22 09:03:41;;;;;;;8.02;3.95;;;;;;;10.31;63.37;99252.97;5030852;28;20021;-42
2022/11/22 09:06:09;;;;;;;8.68;3.70;;;;;;;10.16;63.74;99253.13;5030296;28;20222;-44
2022/11/22 09:08:36;;;;;;;10.95;3.88;;;;;;;9.99;63.99;99250.69;5030290;28;20500;-45
2022/11/22 09:11:03;;;;;;;10.68;4.00;;;;;;;10.01;64.14;99253.25;5030164;28;20026;-45
2022/11/22 09:13:29;;;;;;;9.32;4.00;;;;;;;10.09;64.00;99248.84;5030288;28;20029;-43
2022/11/22 09:16:09;;;;;;;9.02;3.85;;;;;;;10.33;63.44;99255.56;5030194;28;20056;-43
2022/11/22 09:18:35;;;;;;;9.52;4.05;;;;;;;10.29;63.99;99261.69;5030475;28;20409;-45
2022/11/22 09:21:05;;;;;;;8.15;3.78;;;;;;;10.39;63.62;99260.69;5030376;28;20025;-45
2022/11/22 09:23:31;;;;;;;9.48;4.53;;;;;;;10.20;63.53;99260.03;5030542;28;20453;-45
2022/11/22 09:26:01;;;;;;;8.98;4.65;;;;;;;10.27;63.93;99260.84;5030242;28;20032;-45
2022/11/22 09:28:28;;;;;;;12.02;4.68;;;;;;;10.41;63.33;99265.03;5030598;28;20108;-42
2022/11/22 09:31:01;;;;;;;12.18;4.60;;;;;;;10.48;63.41;99271.91;5030046;28;20021;-41
2022/11/22 09:33:27;;;;;;;11.43;4.47;;;;;;;10.27;63.46;99263.44;5029838;28;20535;-46
2022/11/22 09:36:02;;;;;;;10.30;4.60;;;;;;;10.23;63.32;99262.63;5029886;28;20108;-46
2022/11/22 09:40:55;;;;;;;9.88;4.63;;;;;;;10.46;63.46;99264.97;5006666;28;20403;-43
2022/11/22 09:43:58;;;;;;;7.47;4.28;;;;;;;10.42;64.01;99260.69;5010116;28;20041;-42
2022/11/22 09:46:34;;;;;;;11.32;4.30;;;;;;;10.25;63.49;99265.19;5010074;28;20029;-41
2022/11/22 09:49:23;;;;;;;8.65;4.28;;;;;;;10.61;62.55;99259.59;5009855;28;20030;-41
2022/11/22 09:51:57;;;;;;;9.50;4.50;;;;;;;10.42;62.88;99266.75;5010272;28;20033;-44
2022/11/22 09:54:33;;;;;;;8.90;3.85;;;;;;;10.52;62.90;99263.16;5008918;28;20226;-42
2022/11/22 09:57:03;;;;;;;9.05;4.20;;;;;;;10.73;62.98;99272.47;5010386;28;20034;-42
2022/11/22 09:59:33;;;;;;;10.45;3.92;;;;;;;10.62;62.65;99274.31;5010253;28;20049;-41
2022/11/22 10:02:06;;;;;;;9.93;4.20;;;;;;;10.91;61.92;99274.81;5010401;28;20064;-42
2022/11/22 10:04:38;;;;;;;10.07;3.97;;;;;;;11.01;61.58;99272.06;5010630;28;20029;-41
2022/11/22 10:07:15;;;;;;;12.02;3.78;;;;;;;10.63;62.39;99283.84;5010796;28;20030;-41
2022/11/22 10:09:52;;;;;;;7.75;4.05;;;;;;;10.63;62.59;99277.78;5011078;28;20030;-40
2022/11/22 10:12:38;;;;;;;8.98;4.05;;;;;;;10.84;61.63;99281.00;5012650;28;20477;-43
2022/11/22 10:15:28;;;;;;;8.93;4.10;;;;;;;10.78;62.14;99282.81;5000457;28;20045;-42
2022/11/22 10:18:04;;;;;;;9.75;3.85;;;;;;;10.81;61.99;99273.19;5013856;28;20030;-44
2022/11/22 10:20:34;;;;;;;10.18;4.03;;;;;;;10.48;63.22;99264.09;5013764;28;20206;-41
2022/11/22 10:23:01;;;;;;;8.13;3.88;;;;;;;10.66;63.31;99265.59;5010221;28;20111;-43
2022/11/22 10:25:39;;;;;;;9.70;4.05;;;;;;;10.75;62.70;99262.84;5010001;28;20022;-41
2022/11/22 10:28:35;;;;;;;9.13;3.90;;;;;;;10.62;62.93;99256.06;5009865;28;20025;-44
2022/11/22 10:31:22;;;;;;;11.32;4.07;;;;;;;11.01;62.09;99259.03;5009547;28;20053;-43
2022/11/22 10:33:59;;;;;;;11.20;3.80;;;;;;;10.77;62.87;99253.28;5009691;28;20104;-44
2022/11/22 10:36:51;;;;;;;6.88;3.55;;;;;;;10.86;62.39;99252.28;5009958;28;20038;-40
2022/11/22 10:39:29;;;;;;;7.43;3.65;;;;;;;11.08;61.38;99255.47;5010121;28;20168;-42
2022/11/22 10:42:03;;;;;;;6.90;3.55;;;;;;;10.98;61.76;99255.56;5009710;28;20026;-41
2022/11/22 10:44:43;;;;;;;8.27;3.60;;;;;;;10.95;62.09;99260.00;5009851;28;20025;-43
2022/11/22 10:47:08;;;;;;;9.95;3.83;;;;;;;11.03;61.55;99258.16;5010020;28;20128;-43
2022/11/22 10:49:48;;;;;;;11.63;3.78;;;;;;;11.12;61.71;99251.91;5009744;28;20069;-40
2022/11/22 10:52:38;;;;;;;8.52;3.38;;;;;;;11.00;61.49;99252.97;5009734;28;20030;-41
2022/11/22 10:55:21;;;;;;;7.55;3.05;;;;;;;11.06;61.24;99255.47;5013615;28;20100;-42
2022/11/22 10:58:32;;;;;;;6.70;3.33;;;;;;;10.88;62.16;99242.69;5013280;28;20033;-43
2022/11/22 11:01:09;;;;;;;10.00;3.40;;;;;;;10.96;61.70;99243.47;5009525;28;20053;-42
2022/11/22 11:03:40;;;;;;;11.68;3.20;;;;;;;11.09;61.57;99236.31;5012861;28;20135;-40
2022/11/22 11:06:16;;;;;;;8.43;3.22;;;;;;;11.06;61.21;99236.34;5014055;28;20029;-43
2022/11/22 11:08:50;;;;;;;7.35;3.20;;;;;;;11.12;61.77;99244.09;5012270;28;20505;-39
2022/11/22 11:11:15;;;;;;;9.60;3.43;;;;;;;11.14;60.87;99245.81;5013119;28;20382;-44
2022/11/22 11:13:46;;;;;;;7.85;3.20;;;;;;;10.95;61.12;99244.34;5013165;28;20355;-42
2022/11/22 11:16:17;;;;;;;9.77;3.30;;;;;;;11.23;61.28;99239.56;5013774;28;20022;-42
2022/11/22 11:18:49;;;;;;;7.22;3.33;;;;;;;11.34;61.01;99240.28;5013938;28;20478;-43
2022/11/22 11:21:14;;;;;;;8.30;3.22;;;;;;;11.02;61.23;99238.16;5012676;28;20068;-40
2022/11/22 11:23:40;;;;;;;6.28;3.30;;;;;;;11.22;61.64;99235.25;5011483;28;20030;-43
2022/11/22 11:26:18;;;;;;;8.40;3.30;;;;;;;11.71;60.23;99235.31;5012785;28;20091;-42
2022/11/22 11:28:44;;;;;;;7.35;3.25;;;;;;;11.61;60.05;99231.13;5013287;28;20496;-41
2022/11/22 11:31:12;;;;;;;7.50;3.20;;;;;;;11.51;60.18;99232.19;5012705;28;20058;-42
2022/11/22 11:33:39;;;;;;;5.97;3.13;;;;;;;11.58;60.42;99225.97;5012786;28;20057;-41
2022/11/22 11:36:20;;;;;;;5.50;3.05;;;;;;;11.67;60.31;99228.41;5012636;28;20031;-39
2022/11/22 11:38:52;;;;;;;8.55;3.53;;;;;;;11.76;59.85;99223.09;5012599;28;20390;-44
2022/11/22 11:41:38;;;;;;;6.20;3.05;;;;;;;11.76;60.32;99223.94;5012227;28;20033;-45
2022/11/22 11:44:04;;;;;;;8.25;2.97;;;;;;;11.78;59.83;99221.28;5011455;28;20026;-41
2022/11/22 11:46:39;;;;;;;8.60;3.60;;;;;;;11.90;59.81;99212.38;5012869;28;20038;-42
2022/11/22 11:49:14;;;;;;;;;;;;;;;11.78;60.15;99218.69;5013180;28;20075;-44
2022/11/22 11:51:42;;;;;;;8.90;3.33;;;;;;;11.73;60.60;99216.16;5013061;28;19913;-37
2022/11/22 11:54:10;;;;;;;7.93;3.50;;;;;;;11.95;59.77;99211.41;5012944;28;20029;-39
2022/11/22 11:56:48;;;;;;;8.82;3.30;;;;;;;11.98;59.63;99216.56;5013159;28;20065;-42